Osg Courageous — WDF7122 — position and weather

sailwx.info

Track history (hours):
 
Tides and Currents Weather Stations Pressure Air Temp Water Temp Dewpoint Dewpoint Depression Visibility Wind Speed Wind Dir Waves Ship Positions

Osg Courageous

Owner: OSG Ship Management, Inc, Tampa, FL. More information available from US FCC via Universal Licensing System and Coast Guard Vessel Documentation Center.

Last reported at 2017-Nov-18 06:30 UTC. Time now 2017-Nov-18 06:58 UTC.
Position N 27°48' W 082°30'.

Length 187 m; draft 11 m.

Type: Tanker. MMSI: 367481310.

Date/timePositionNaut miles runAvg speedWind from/ knotsBaromVisibWave heightAir tempDewpointWater temp
2017-Nov-18 06:30N 27°48' W 082°30'4 8.5
2017-Nov-18 06:00N 27°51' W 082°27'4 8.6
2017-Nov-18 05:30N 27°55' W 082°27'2 3.4
2017-Nov-18 05:01N 27°57' W 082°27'0 0.7
2017-Nov-18 04:30N 27°57' W 082°27'0 0.0
2017-Nov-18 03:58N 27°57' W 082°27'0 0.0
2017-Nov-18 03:28N 27°57' W 082°27'0 0.0
2017-Nov-18 02:58N 27°57' W 082°27'0 0.0
2017-Nov-18 02:28N 27°57' W 082°27'0 0.0
2017-Nov-18 01:58N 27°57' W 082°27'0 0.0
2017-Nov-18 01:28N 27°57' W 082°27'0 0.0
2017-Nov-18 00:58N 27°57' W 082°27'0 0.0
2017-Nov-18 00:28N 27°57' W 082°27'0 0.0
2017-Nov-17 23:58N 27°57' W 082°27'0 0.0
2017-Nov-17 23:28N 27°57' W 082°27'0 0.0
2017-Nov-17 22:58N 27°57' W 082°27'0 0.0
2017-Nov-17 22:28N 27°57' W 082°27'0 0.0
2017-Nov-17 21:58N 27°57' W 082°27'0 0.0
2017-Nov-17 21:28N 27°57' W 082°27'0 0.0
2017-Nov-17 20:58N 27°57' W 082°27'0 0.0
2017-Nov-17 20:28N 27°57' W 082°27'0 0.0
2017-Nov-17 19:58N 27°57' W 082°27'0 0.0
2017-Nov-17 19:28N 27°57' W 082°27'0 0.0
2017-Nov-17 18:58N 27°57' W 082°27'0 0.0
2017-Nov-17 18:28N 27°57' W 082°27'0 0.0
2017-Nov-17 17:58N 27°57' W 082°27'0 0.0
2017-Nov-17 17:28N 27°57' W 082°27'0 0.0
2017-Nov-17 16:58N 27°57' W 082°27'0 0.0
2017-Nov-17 16:28N 27°57' W 082°27'0 0.0
2017-Nov-17 15:58N 27°57' W 082°27'0 0.0
2017-Nov-17 15:28N 27°57' W 082°27'0 0.0
2017-Nov-17 14:58N 27°57' W 082°27'0 0.0
2017-Nov-17 14:28N 27°57' W 082°27'0 0.0
2017-Nov-17 13:58N 27°57' W 082°27'0 0.0
2017-Nov-17 13:25N 27°57' W 082°27'0 0.0
2017-Nov-17 12:55N 27°57' W 082°27'0 0.0
2017-Nov-17 12:25N 27°57' W 082°27'0 0.0
2017-Nov-17 11:58N 27°57' W 082°27'0 0.0
2017-Nov-17 11:25N 27°57' W 082°27'0 0.0
2017-Nov-17 10:58N 27°57' W 082°27'0 0.0
2017-Nov-17 10:28N 27°57' W 082°27'0 0.0
2017-Nov-17 09:55N 27°57' W 082°27'0 0.0
2017-Nov-17 09:28N 27°57' W 082°27'0 0.0
2017-Nov-17 08:58N 27°57' W 082°27'0 0.0
2017-Nov-17 08:25N 27°57' W 082°27'0 0.0
2017-Nov-17 07:58N 27°57' W 082°27'0 0.0
2017-Nov-17 07:25N 27°57' W 082°27'0 0.0
2017-Nov-17 06:52N 27°57' W 082°27'0 0.0
2017-Nov-17 06:28N 27°57' W 082°27'0 0.0
2017-Nov-17 05:58N 27°57' W 082°27'0 0.0
2017-Nov-17 05:28N 27°57' W 082°27'0 0.0
2017-Nov-17 04:58N 27°57' W 082°27'0 0.0
2017-Nov-17 04:28N 27°57' W 082°27'0 0.0
2017-Nov-17 03:58N 27°57' W 082°27'0 0.0
2017-Nov-17 03:30N 27°57' W 082°27'0 0.0
2017-Nov-17 03:00N 27°57' W 082°27'1 2.2
2017-Nov-17 02:30N 27°56' W 082°27'1 1.7
2017-Nov-17 02:00N 27°55' W 082°27'0 0.0
2017-Nov-17 01:30N 27°55' W 082°27'0 0.0
2017-Nov-17 01:00N 27°55' W 082°27'0 0.1
2017-Nov-17 00:30N 27°55' W 082°27'0 0.0
2017-Nov-17 00:00N 27°55' W 082°27'0 0.0
2017-Nov-16 23:30N 27°55' W 082°27'1 2.1
2017-Nov-16 23:00N 27°54' W 082°26'0 0.5
2017-Nov-16 22:30N 27°54' W 082°26'0 0.2
2017-Nov-16 22:00N 27°54' W 082°26'1 1.9
2017-Nov-16 21:29N 27°55' W 082°26'0 0.0
2017-Nov-16 20:59N 27°55' W 082°26'0 0.0
2017-Nov-16 20:29N 27°55' W 082°26'0 0.0
2017-Nov-16 19:59N 27°55' W 082°26'0 0.0
2017-Nov-16 19:29N 27°55' W 082°26'0 0.0
2017-Nov-16 18:59N 27°55' W 082°26'0 0.0
2017-Nov-16 18:29N 27°55' W 082°26'0 0.0
2017-Nov-16 17:59N 27°55' W 082°26'0 0.0
2017-Nov-16 17:29N 27°55' W 082°26'0 0.0
2017-Nov-16 16:59N 27°55' W 082°26'0 0.0
2017-Nov-16 16:29N 27°55' W 082°26'0 0.0
2017-Nov-16 15:59N 27°55' W 082°26'0 0.0
2017-Nov-16 15:29N 27°55' W 082°26'0 0.0
2017-Nov-16 14:59N 27°55' W 082°26'0 0.0
2017-Nov-16 14:30N 27°55' W 082°26'0 0.0
2017-Nov-16 14:00N 27°55' W 082°26'0 0.0
2017-Nov-16 13:30N 27°55' W 082°26'0 0.0
2017-Nov-16 13:00N 27°55' W 082°26'0 0.0
2017-Nov-16 12:30N 27°55' W 082°26'0 0.0
2017-Nov-16 12:00N 27°55' W 082°26'0 0.0
2017-Nov-16 11:30N 27°55' W 082°26'0 0.0
2017-Nov-16 11:00N 27°55' W 082°26'0 0.0
2017-Nov-16 10:30N 27°55' W 082°26'0 0.0
2017-Nov-16 10:00N 27°55' W 082°26'0 0.0
2017-Nov-16 09:30N 27°55' W 082°26'0 0.0
2017-Nov-16 09:00N 27°55' W 082°26'0 0.0
2017-Nov-16 08:30N 27°55' W 082°26'0 0.0
2017-Nov-16 08:00N 27°55' W 082°26'0 0.0
2017-Nov-16 07:30N 27°55' W 082°26'0 0.0
2017-Nov-16 07:00N 27°55' W 082°26'0 0.0
2017-Nov-16 06:30N 27°55' W 082°26'0 0.0
2017-Nov-16 06:00N 27°55' W 082°26'0 0.0
2017-Nov-16 05:30N 27°55' W 082°26'0 0.0
2017-Nov-16 05:00N 27°55' W 082°26'0 0.0
2017-Nov-16 04:30N 27°55' W 082°26'0 0.0
2017-Nov-16 04:00N 27°55' W 082°26'0 0.0
2017-Nov-16 03:30N 27°55' W 082°26'0 0.0
2017-Nov-16 03:00N 27°55' W 082°26'0 0.0
2017-Nov-16 02:30N 27°55' W 082°26'0 0.0
2017-Nov-16 02:00N 27°55' W 082°26'0 0.0
2017-Nov-16 01:30N 27°55' W 082°26'0 0.0
2017-Nov-16 01:00N 27°55' W 082°26'0 0.0
2017-Nov-16 00:30N 27°55' W 082°26'0 0.0
2017-Nov-16 00:00N 27°55' W 082°26'0 0.0
2017-Nov-15 23:30N 27°55' W 082°26'0 0.0
2017-Nov-15 23:00N 27°55' W 082°26'0 0.0
2017-Nov-15 22:30N 27°55' W 082°26'0 0.0
2017-Nov-15 22:00N 27°55' W 082°26'0 0.0
2017-Nov-15 21:30N 27°55' W 082°26'1 1.7
2017-Nov-15 21:00N 27°54' W 082°26'1 2.2
2017-Nov-15 20:30N 27°55' W 082°27'0 0.0
2017-Nov-15 20:00N 27°55' W 082°27'0 0.0
2017-Nov-15 19:30N 27°55' W 082°27'0 0.0
2017-Nov-15 19:00N 27°55' W 082°27'0 0.0
2017-Nov-15 18:30N 27°55' W 082°27'0 0.0
2017-Nov-15 18:00N 27°55' W 082°27'0 0.0
2017-Nov-15 17:30N 27°55' W 082°27'0 0.0
2017-Nov-15 17:00N 27°55' W 082°27'0 0.0
2017-Nov-15 16:30N 27°55' W 082°27'0 0.0
2017-Nov-15 16:00N 27°55' W 082°27'0 0.0
2017-Nov-15 15:30N 27°55' W 082°27'0 0.0
2017-Nov-15 15:00N 27°55' W 082°27'0 0.0
2017-Nov-15 14:30N 27°55' W 082°27'0 0.0
2017-Nov-15 14:00N 27°55' W 082°27'1 2.4
2017-Nov-15 13:30N 27°54' W 082°26'5 9.3
2017-Nov-15 13:00N 27°49' W 082°27'4 8.6
2017-Nov-15 12:30N 27°47' W 082°31'4 8.7
2017-Nov-15 12:00N 27°43' W 082°32'7 8.6
2017-Nov-15 11:14N 27°38' W 082°37'  
Track history (hours):
 
Tides and Currents Weather Stations Pressure Air Temp Water Temp Dewpoint Dewpoint Depression Visibility Wind Speed Wind Dir Waves Ship Positions

Osg Courageous

Owner: OSG Ship Management, Inc, Tampa, FL. More information available from US FCC via Universal Licensing System and Coast Guard Vessel Documentation Center.

Last reported at 2017-Nov-18 06:30 UTC. Time now 2017-Nov-18 06:58 UTC.
Position N 27°48' W 082°30'.

Length 187 m; draft 11 m.

Type: Tanker. MMSI: 367481310.

Date/timePositionNaut miles runAvg speedWind from/ knotsBaromVisibWave heightAir tempDewpointWater temp
2017-Nov-18 06:30N 27°48' W 082°30'4 8.5
2017-Nov-18 06:00N 27°51' W 082°27'4 8.6
2017-Nov-18 05:30N 27°55' W 082°27'2 3.4
2017-Nov-18 05:01N 27°57' W 082°27'0 0.7
2017-Nov-18 04:30N 27°57' W 082°27'0 0.0
2017-Nov-18 03:58N 27°57' W 082°27'0 0.0
2017-Nov-18 03:28N 27°57' W 082°27'0 0.0
2017-Nov-18 02:58N 27°57' W 082°27'0 0.0
2017-Nov-18 02:28N 27°57' W 082°27'0 0.0
2017-Nov-18 01:58N 27°57' W 082°27'0 0.0
2017-Nov-18 01:28N 27°57' W 082°27'0 0.0
2017-Nov-18 00:58N 27°57' W 082°27'0 0.0
2017-Nov-18 00:28N 27°57' W 082°27'0 0.0
2017-Nov-17 23:58N 27°57' W 082°27'0 0.0
2017-Nov-17 23:28N 27°57' W 082°27'0 0.0
2017-Nov-17 22:58N 27°57' W 082°27'0 0.0
2017-Nov-17 22:28N 27°57' W 082°27'0 0.0
2017-Nov-17 21:58N 27°57' W 082°27'0 0.0
2017-Nov-17 21:28N 27°57' W 082°27'0 0.0
2017-Nov-17 20:58N 27°57' W 082°27'0 0.0
2017-Nov-17 20:28N 27°57' W 082°27'0 0.0
2017-Nov-17 19:58N 27°57' W 082°27'0 0.0
2017-Nov-17 19:28N 27°57' W 082°27'0 0.0
2017-Nov-17 18:58N 27°57' W 082°27'0 0.0
2017-Nov-17 18:28N 27°57' W 082°27'0 0.0
2017-Nov-17 17:58N 27°57' W 082°27'0 0.0
2017-Nov-17 17:28N 27°57' W 082°27'0 0.0
2017-Nov-17 16:58N 27°57' W 082°27'0 0.0
2017-Nov-17 16:28N 27°57' W 082°27'0 0.0
2017-Nov-17 15:58N 27°57' W 082°27'0 0.0
2017-Nov-17 15:28N 27°57' W 082°27'0 0.0
2017-Nov-17 14:58N 27°57' W 082°27'0 0.0
2017-Nov-17 14:28N 27°57' W 082°27'0 0.0
2017-Nov-17 13:58N 27°57' W 082°27'0 0.0
2017-Nov-17 13:25N 27°57' W 082°27'0 0.0
2017-Nov-17 12:55N 27°57' W 082°27'0 0.0
2017-Nov-17 12:25N 27°57' W 082°27'0 0.0
2017-Nov-17 11:58N 27°57' W 082°27'0 0.0
2017-Nov-17 11:25N 27°57' W 082°27'0 0.0
2017-Nov-17 10:58N 27°57' W 082°27'0 0.0
2017-Nov-17 10:28N 27°57' W 082°27'0 0.0
2017-Nov-17 09:55N 27°57' W 082°27'0 0.0
2017-Nov-17 09:28N 27°57' W 082°27'0 0.0
2017-Nov-17 08:58N 27°57' W 082°27'0 0.0
2017-Nov-17 08:25N 27°57' W 082°27'0 0.0
2017-Nov-17 07:58N 27°57' W 082°27'0 0.0
2017-Nov-17 07:25N 27°57' W 082°27'0 0.0
2017-Nov-17 06:52N 27°57' W 082°27'0 0.0
2017-Nov-17 06:28N 27°57' W 082°27'0 0.0
2017-Nov-17 05:58N 27°57' W 082°27'0 0.0
2017-Nov-17 05:28N 27°57' W 082°27'0 0.0
2017-Nov-17 04:58N 27°57' W 082°27'0 0.0
2017-Nov-17 04:28N 27°57' W 082°27'0 0.0
2017-Nov-17 03:58N 27°57' W 082°27'0 0.0
2017-Nov-17 03:30N 27°57' W 082°27'0 0.0
2017-Nov-17 03:00N 27°57' W 082°27'1 2.2
2017-Nov-17 02:30N 27°56' W 082°27'1 1.7
2017-Nov-17 02:00N 27°55' W 082°27'0 0.0
2017-Nov-17 01:30N 27°55' W 082°27'0 0.0
2017-Nov-17 01:00N 27°55' W 082°27'0 0.1
2017-Nov-17 00:30N 27°55' W 082°27'0 0.0
2017-Nov-17 00:00N 27°55' W 082°27'0 0.0
2017-Nov-16 23:30N 27°55' W 082°27'1 2.1
2017-Nov-16 23:00N 27°54' W 082°26'0 0.5
2017-Nov-16 22:30N 27°54' W 082°26'0 0.2
2017-Nov-16 22:00N 27°54' W 082°26'1 1.9
2017-Nov-16 21:29N 27°55' W 082°26'0 0.0
2017-Nov-16 20:59N 27°55' W 082°26'0 0.0
2017-Nov-16 20:29N 27°55' W 082°26'0 0.0
2017-Nov-16 19:59N 27°55' W 082°26'0 0.0
2017-Nov-16 19:29N 27°55' W 082°26'0 0.0
2017-Nov-16 18:59N 27°55' W 082°26'0 0.0
2017-Nov-16 18:29N 27°55' W 082°26'0 0.0
2017-Nov-16 17:59N 27°55' W 082°26'0 0.0
2017-Nov-16 17:29N 27°55' W 082°26'0 0.0
2017-Nov-16 16:59N 27°55' W 082°26'0 0.0
2017-Nov-16 16:29N 27°55' W 082°26'0 0.0
2017-Nov-16 15:59N 27°55' W 082°26'0 0.0
2017-Nov-16 15:29N 27°55' W 082°26'0 0.0
2017-Nov-16 14:59N 27°55' W 082°26'0 0.0
2017-Nov-16 14:30N 27°55' W 082°26'0 0.0
2017-Nov-16 14:00N 27°55' W 082°26'0 0.0
2017-Nov-16 13:30N 27°55' W 082°26'0 0.0
2017-Nov-16 13:00N 27°55' W 082°26'0 0.0
2017-Nov-16 12:30N 27°55' W 082°26'0 0.0
2017-Nov-16 12:00N 27°55' W 082°26'0 0.0
2017-Nov-16 11:30N 27°55' W 082°26'0 0.0
2017-Nov-16 11:00N 27°55' W 082°26'0 0.0
2017-Nov-16 10:30N 27°55' W 082°26'0 0.0
2017-Nov-16 10:00N 27°55' W 082°26'0 0.0
2017-Nov-16 09:30N 27°55' W 082°26'0 0.0
2017-Nov-16 09:00N 27°55' W 082°26'0 0.0
2017-Nov-16 08:30N 27°55' W 082°26'0 0.0
2017-Nov-16 08:00N 27°55' W 082°26'0 0.0
2017-Nov-16 07:30N 27°55' W 082°26'0 0.0
2017-Nov-16 07:00N 27°55' W 082°26'0 0.0
2017-Nov-16 06:30N 27°55' W 082°26'0 0.0
2017-Nov-16 06:00N 27°55' W 082°26'0 0.0
2017-Nov-16 05:30N 27°55' W 082°26'0 0.0
2017-Nov-16 05:00N 27°55' W 082°26'0 0.0
2017-Nov-16 04:30N 27°55' W 082°26'0 0.0
2017-Nov-16 04:00N 27°55' W 082°26'0 0.0
2017-Nov-16 03:30N 27°55' W 082°26'0 0.0
2017-Nov-16 03:00N 27°55' W 082°26'0 0.0
2017-Nov-16 02:30N 27°55' W 082°26'0 0.0
2017-Nov-16 02:00N 27°55' W 082°26'0 0.0
2017-Nov-16 01:30N 27°55' W 082°26'0 0.0
2017-Nov-16 01:00N 27°55' W 082°26'0 0.0
2017-Nov-16 00:30N 27°55' W 082°26'0 0.0
2017-Nov-16 00:00N 27°55' W 082°26'0 0.0
2017-Nov-15 23:30N 27°55' W 082°26'0 0.0
2017-Nov-15 23:00N 27°55' W 082°26'0 0.0
2017-Nov-15 22:30N 27°55' W 082°26'0 0.0
2017-Nov-15 22:00N 27°55' W 082°26'0 0.0
2017-Nov-15 21:30N 27°55' W 082°26'1 1.7
2017-Nov-15 21:00N 27°54' W 082°26'1 2.2
2017-Nov-15 20:30N 27°55' W 082°27'0 0.0
2017-Nov-15 20:00N 27°55' W 082°27'0 0.0
2017-Nov-15 19:30N 27°55' W 082°27'0 0.0
2017-Nov-15 19:00N 27°55' W 082°27'0 0.0
2017-Nov-15 18:30N 27°55' W 082°27'0 0.0
2017-Nov-15 18:00N 27°55' W 082°27'0 0.0
2017-Nov-15 17:30N 27°55' W 082°27'0 0.0
2017-Nov-15 17:00N 27°55' W 082°27'0 0.0
2017-Nov-15 16:30N 27°55' W 082°27'0 0.0
2017-Nov-15 16:00N 27°55' W 082°27'0 0.0
2017-Nov-15 15:30N 27°55' W 082°27'0 0.0
2017-Nov-15 15:00N 27°55' W 082°27'0 0.0
2017-Nov-15 14:30N 27°55' W 082°27'0 0.0
2017-Nov-15 14:00N 27°55' W 082°27'1 2.4
2017-Nov-15 13:30N 27°54' W 082°26'5 9.3
2017-Nov-15 13:00N 27°49' W 082°27'4 8.6
2017-Nov-15 12:30N 27°47' W 082°31'4 8.7
2017-Nov-15 12:00N 27°43' W 082°32'7 8.6
2017-Nov-15 11:14N 27°38' W 082°37'  

Dump ship's entire track history